sensor_id;sensor_type;location;lat;lon;timestamp;temperature;humidity
69938;DHT22;57248;47.320;15.998;2023-08-08T00:02:05;13.66;70.80
69938;DHT22;57248;47.320;15.998;2023-08-08T00:04:37;13.59;71.87
69938;DHT22;57248;47.320;15.998;2023-08-08T00:07:09;13.47;72.86
69938;DHT22;57248;47.320;15.998;2023-08-08T00:09:42;13.36;73.18
69938;DHT22;57248;47.320;15.998;2023-08-08T00:12:14;13.24;73.78
69938;DHT22;57248;47.320;15.998;2023-08-08T00:14:46;13.16;74.74
69938;DHT22;57248;47.320;15.998;2023-08-08T00:17:18;12.98;74.75
69938;DHT22;57248;47.320;15.998;2023-08-08T00:19:57;12.92;76.30
69938;DHT22;57248;47.320;15.998;2023-08-08T00:22:30;12.78;77.76
69938;DHT22;57248;47.320;15.998;2023-08-08T00:24:55;12.72;76.15
69938;DHT22;57248;47.320;15.998;2023-08-08T00:27:27;12.67;77.27
69938;DHT22;57248;47.320;15.998;2023-08-08T00:30:00;12.47;78.52
69938;DHT22;57248;47.320;15.998;2023-08-08T00:32:34;12.45;77.00
69938;DHT22;57248;47.320;15.998;2023-08-08T00:35:06;12.47;76.73
69938;DHT22;57248;47.320;15.998;2023-08-08T00:37:38;12.37;77.36
69938;DHT22;57248;47.320;15.998;2023-08-08T00:40:10;12.23;78.77
69938;DHT22;57248;47.320;15.998;2023-08-08T00:42:42;11.99;80.06
69938;DHT22;57248;47.320;15.998;2023-08-08T00:45:08;12.00;80.13
69938;DHT22;57248;47.320;15.998;2023-08-08T00:47:41;11.93;80.50
69938;DHT22;57248;47.320;15.998;2023-08-08T00:50:13;11.93;80.54
69938;DHT22;57248;47.320;15.998;2023-08-08T00:52:45;11.76;81.58
69938;DHT22;57248;47.320;15.998;2023-08-08T00:55:18;11.69;81.99
69938;DHT22;57248;47.320;15.998;2023-08-08T00:57:50;11.54;81.90
69938;DHT22;57248;47.320;15.998;2023-08-08T01:00:22;11.51;81.63
69938;DHT22;57248;47.320;15.998;2023-08-08T01:02:54;11.52;82.69
69938;DHT22;57248;47.320;15.998;2023-08-08T01:05:32;11.42;82.72
69938;DHT22;57248;47.320;15.998;2023-08-08T01:08:07;11.28;84.02
69938;DHT22;57248;47.320;15.998;2023-08-08T01:10:41;11.22;84.15
69938;DHT22;57248;47.320;15.998;2023-08-08T01:13:26;11.12;84.75
69938;DHT22;57248;47.320;15.998;2023-08-08T01:15:59;10.91;85.35
69938;DHT22;57248;47.320;15.998;2023-08-08T01:18:32;10.96;84.45
69938;DHT22;57248;47.320;15.998;2023-08-08T01:21:06;10.85;86.16
69938;DHT22;57248;47.320;15.998;2023-08-08T01:23:46;10.79;86.72
69938;DHT22;57248;47.320;15.998;2023-08-08T01:26:21;10.77;86.71
69938;DHT22;57248;47.320;15.998;2023-08-08T01:28:53;10.57;87.47
69938;DHT22;57248;47.320;15.998;2023-08-08T01:31:22;10.63;87.41
69938;DHT22;57248;47.320;15.998;2023-08-08T01:33:54;10.57;87.88
69938;DHT22;57248;47.320;15.998;2023-08-08T01:36:32;10.50;88.11
69938;DHT22;57248;47.320;15.998;2023-08-08T01:39:06;10.52;87.85
69938;DHT22;57248;47.320;15.998;2023-08-08T01:41:41;10.46;87.83
69938;DHT22;57248;47.320;15.998;2023-08-08T01:44:13;10.41;88.00
69938;DHT22;57248;47.320;15.998;2023-08-08T01:46:45;10.29;88.01
69938;DHT22;57248;47.320;15.998;2023-08-08T01:49:17;10.21;88.40
69938;DHT22;57248;47.320;15.998;2023-08-08T01:51:49;10.21;88.68
69938;DHT22;57248;47.320;15.998;2023-08-08T01:54:22;10.15;88.81
69938;DHT22;57248;47.320;15.998;2023-08-08T01:56:54;10.12;88.37
69938;DHT22;57248;47.320;15.998;2023-08-08T01:59:21;9.94;88.61
69938;DHT22;57248;47.320;15.998;2023-08-08T02:01:53;9.88;88.96
69938;DHT22;57248;47.320;15.998;2023-08-08T02:04:25;9.88;89.47
69938;DHT22;57248;47.320;15.998;2023-08-08T02:06:57;9.78;89.74
69938;DHT22;57248;47.320;15.998;2023-08-08T02:09:30;9.82;89.59
69938;DHT22;57248;47.320;15.998;2023-08-08T02:12:02;9.69;89.97
69938;DHT22;57248;47.320;15.998;2023-08-08T02:14:34;9.60;89.94
69938;DHT22;57248;47.320;15.998;2023-08-08T02:16:59;9.70;89.10
69938;DHT22;57248;47.320;15.998;2023-08-08T02:19:31;9.63;89.07
69938;DHT22;57248;47.320;15.998;2023-08-08T02:22:10;9.70;90.51
69938;DHT22;57248;47.320;15.998;2023-08-08T02:24:35;9.61;90.32
69938;DHT22;57248;47.320;15.998;2023-08-08T02:27:07;9.51;89.88
69938;DHT22;57248;47.320;15.998;2023-08-08T02:29:39;9.50;90.21
69938;DHT22;57248;47.320;15.998;2023-08-08T02:32:11;9.47;90.45
69938;DHT22;57248;47.320;15.998;2023-08-08T02:34:45;9.43;90.49
69938;DHT22;57248;47.320;15.998;2023-08-08T02:37:17;9.40;90.31
69938;DHT22;57248;47.320;15.998;2023-08-08T02:39:49;9.44;90.49
69938;DHT22;57248;47.320;15.998;2023-08-08T02:42:15;9.27;90.56
69938;DHT22;57248;47.320;15.998;2023-08-08T02:44:47;9.37;90.28
69938;DHT22;57248;47.320;15.998;2023-08-08T02:47:19;9.30;90.16
69938;DHT22;57248;47.320;15.998;2023-08-08T02:49:46;9.24;91.36
69938;DHT22;57248;47.320;15.998;2023-08-08T02:52:17;9.29;91.44
69938;DHT22;57248;47.320;15.998;2023-08-08T02:54:49;9.18;91.27
69938;DHT22;57248;47.320;15.998;2023-08-08T02:57:21;9.26;91.90
69938;DHT22;57248;47.320;15.998;2023-08-08T02:59:54;9.29;91.06
69938;DHT22;57248;47.320;15.998;2023-08-08T03:02:34;9.26;90.90
69938;DHT22;57248;47.320;15.998;2023-08-08T03:05:07;9.22;91.43
69938;DHT22;57248;47.320;15.998;2023-08-08T03:07:39;9.16;91.82
69938;DHT22;57248;47.320;15.998;2023-08-08T03:10:12;9.02;91.29
69938;DHT22;57248;47.320;15.998;2023-08-08T03:12:44;9.01;91.58
69938;DHT22;57248;47.320;15.998;2023-08-08T03:15:17;8.98;92.18
69938;DHT22;57248;47.320;15.998;2023-08-08T03:17:43;8.91;91.96
69938;DHT22;57248;47.320;15.998;2023-08-08T03:20:23;8.96;91.10
69938;DHT22;57248;47.320;15.998;2023-08-08T03:22:56;8.91;91.47
69938;DHT22;57248;47.320;15.998;2023-08-08T03:25:28;8.88;91.65
69938;DHT22;57248;47.320;15.998;2023-08-08T03:28:01;8.88;92.00
69938;DHT22;57248;47.320;15.998;2023-08-08T03:30:26;8.67;91.70
69938;DHT22;57248;47.320;15.998;2023-08-08T03:32:58;8.55;92.35
69938;DHT22;57248;47.320;15.998;2023-08-08T03:35:23;8.68;92.78
69938;DHT22;57248;47.320;15.998;2023-08-08T03:37:56;8.64;92.32
69938;DHT22;57248;47.320;15.998;2023-08-08T03:40:28;8.62;92.10
69938;DHT22;57248;47.320;15.998;2023-08-08T03:43:00;8.62;92.26
69938;DHT22;57248;47.320;15.998;2023-08-08T03:45:32;8.55;92.17
69938;DHT22;57248;47.320;15.998;2023-08-08T03:48:04;8.67;92.32
69938;DHT22;57248;47.320;15.998;2023-08-08T03:50:30;8.64;92.37
69938;DHT22;57248;47.320;15.998;2023-08-08T03:53:02;8.68;92.36
69938;DHT22;57248;47.320;15.998;2023-08-08T03:55:34;8.74;92.52
69938;DHT22;57248;47.320;15.998;2023-08-08T03:58:01;8.78;91.63
69938;DHT22;57248;47.320;15.998;2023-08-08T04:00:33;8.74;91.42
69938;DHT22;57248;47.320;15.998;2023-08-08T04:03:06;8.86;92.17
69938;DHT22;57248;47.320;15.998;2023-08-08T04:05:38;8.99;91.86
69938;DHT22;57248;47.320;15.998;2023-08-08T04:08:10;9.01;91.79
69938;DHT22;57248;47.320;15.998;2023-08-08T04:10:43;8.98;91.23
69938;DHT22;57248;47.320;15.998;2023-08-08T04:13:15;9.08;92.14
69938;DHT22;57248;47.320;15.998;2023-08-08T04:15:47;9.18;92.08
69938;DHT22;57248;47.320;15.998;2023-08-08T04:18:21;9.34;91.26
69938;DHT22;57248;47.320;15.998;2023-08-08T04:20:52;9.37;91.13
69938;DHT22;57248;47.320;15.998;2023-08-08T04:23:31;9.42;91.74
69938;DHT22;57248;47.320;15.998;2023-08-08T04:26:03;9.40;91.77
69938;DHT22;57248;47.320;15.998;2023-08-08T04:28:35;9.44;91.51
69938;DHT22;57248;47.320;15.998;2023-08-08T04:31:07;9.39;90.94
69938;DHT22;57248;47.320;15.998;2023-08-08T04:33:39;9.42;91.97
69938;DHT22;57248;47.320;15.998;2023-08-08T04:36:11;9.64;91.60
69938;DHT22;57248;47.320;15.998;2023-08-08T04:38:43;9.75;91.99
69938;DHT22;57248;47.320;15.998;2023-08-08T04:41:15;9.84;91.46
69938;DHT22;57248;47.320;15.998;2023-08-08T04:43:47;9.91;91.78
69938;DHT22;57248;47.320;15.998;2023-08-08T04:46:19;10.04;91.16
69938;DHT22;57248;47.320;15.998;2023-08-08T04:48:51;10.16;91.30
69938;DHT22;57248;47.320;15.998;2023-08-08T04:51:23;10.38;91.72
69938;DHT22;57248;47.320;15.998;2023-08-08T04:53:56;10.55;90.51
69938;DHT22;57248;47.320;15.998;2023-08-08T04:56:21;10.64;90.35
69938;DHT22;57248;47.320;15.998;2023-08-08T04:58:53;10.93;90.36
69938;DHT22;57248;47.320;15.998;2023-08-08T05:01:25;11.14;89.30
69938;DHT22;57248;47.320;15.998;2023-08-08T05:03:57;11.24;89.49
69938;DHT22;57248;47.320;15.998;2023-08-08T05:06:29;11.46;88.64
69938;DHT22;57248;47.320;15.998;2023-08-08T05:09:01;11.68;88.22
69938;DHT22;57248;47.320;15.998;2023-08-08T05:11:33;13.22;92.43
69938;DHT22;57248;47.320;15.998;2023-08-08T05:14:05;13.81;84.98
69938;DHT22;57248;47.320;15.998;2023-08-08T05:16:37;13.42;84.72
69938;DHT22;57248;47.320;15.998;2023-08-08T05:19:16;13.12;85.50
69938;DHT22;57248;47.320;15.998;2023-08-08T05:21:48;13.06;85.32
69938;DHT22;57248;47.320;15.998;2023-08-08T05:24:28;13.24;84.41
69938;DHT22;57248;47.320;15.998;2023-08-08T05:27:00;13.10;83.83
69938;DHT22;57248;47.320;15.998;2023-08-08T05:29:32;13.09;84.39
69938;DHT22;57248;47.320;15.998;2023-08-08T05:32:05;13.24;82.69
69938;DHT22;57248;47.320;15.998;2023-08-08T05:34:38;13.53;83.53
69938;DHT22;57248;47.320;15.998;2023-08-08T05:37:10;13.82;83.18
69938;DHT22;57248;47.320;15.998;2023-08-08T05:39:42;13.95;82.18
69938;DHT22;57248;47.320;15.998;2023-08-08T05:42:08;14.19;80.41
69938;DHT22;57248;47.320;15.998;2023-08-08T05:44:40;14.17;80.57
69938;DHT22;57248;47.320;15.998;2023-08-08T05:47:16;14.38;80.90
69938;DHT22;57248;47.320;15.998;2023-08-08T05:49:48;15.10;80.41
69938;DHT22;57248;47.320;15.998;2023-08-08T05:52:22;15.79;79.14
69938;DHT22;57248;47.320;15.998;2023-08-08T05:54:54;16.41;76.86
69938;DHT22;57248;47.320;15.998;2023-08-08T05:57:26;17.08;76.41
69938;DHT22;57248;47.320;15.998;2023-08-08T05:59:58;17.18;74.43
69938;DHT22;57248;47.320;15.998;2023-08-08T06:02:38;17.02;71.89
69938;DHT22;57248;47.320;15.998;2023-08-08T06:05:11;17.49;72.20
69938;DHT22;57248;47.320;15.998;2023-08-08T06:07:43;17.73;72.55
69938;DHT22;57248;47.320;15.998;2023-08-08T06:10:16;17.84;71.14
69938;DHT22;57248;47.320;15.998;2023-08-08T06:12:48;17.87;69.89
69938;DHT22;57248;47.320;15.998;2023-08-08T06:15:21;18.19;67.71
69938;DHT22;57248;47.320;15.998;2023-08-08T06:17:53;18.36;68.22
69938;DHT22;57248;47.320;15.998;2023-08-08T06:20:33;17.64;69.05
69938;DHT22;57248;47.320;15.998;2023-08-08T06:23:06;18.42;68.22
69938;DHT22;57248;47.320;15.998;2023-08-08T06:25:38;18.63;66.48
69938;DHT22;57248;47.320;15.998;2023-08-08T06:28:10;19.30;71.97
69938;DHT22;57248;47.320;15.998;2023-08-08T06:30:43;19.34;66.85
69938;DHT22;57248;47.320;15.998;2023-08-08T06:33:15;18.89;66.84
69938;DHT22;57248;47.320;15.998;2023-08-08T06:35:48;19.24;67.15
69938;DHT22;57248;47.320;15.998;2023-08-08T06:38:20;19.59;65.52
69938;DHT22;57248;47.320;15.998;2023-08-08T06:40:52;19.73;64.04
69938;DHT22;57248;47.320;15.998;2023-08-08T06:43:24;20.37;64.34
69938;DHT22;57248;47.320;15.998;2023-08-08T06:45:49;20.90;61.88
69938;DHT22;57248;47.320;15.998;2023-08-08T06:48:21;21.15;61.53
69938;DHT22;57248;47.320;15.998;2023-08-08T06:50:54;20.99;57.32
69938;DHT22;57248;47.320;15.998;2023-08-08T06:53:28;21.11;58.09
69938;DHT22;57248;47.320;15.998;2023-08-08T06:56:00;20.95;56.54
69938;DHT22;57248;47.320;15.998;2023-08-08T06:58:32;21.70;56.75
69938;DHT22;57248;47.320;15.998;2023-08-08T07:00:58;21.86;57.19
69938;DHT22;57248;47.320;15.998;2023-08-08T07:03:29;21.86;55.11
69938;DHT22;57248;47.320;15.998;2023-08-08T07:06:03;22.00;53.42
69938;DHT22;57248;47.320;15.998;2023-08-08T07:08:34;22.59;53.22
69938;DHT22;57248;47.320;15.998;2023-08-08T07:11:07;21.74;54.71
69938;DHT22;57248;47.320;15.998;2023-08-08T07:13:33;21.70;54.78
69938;DHT22;57248;47.320;15.998;2023-08-08T07:16:05;21.22;54.25
69938;DHT22;57248;47.320;15.998;2023-08-08T07:18:37;21.90;55.18
69938;DHT22;57248;47.320;15.998;2023-08-08T07:21:23;21.53;55.28
69938;DHT22;57248;47.320;15.998;2023-08-08T07:23:55;21.66;55.70
69938;DHT22;57248;47.320;15.998;2023-08-08T07:26:22;21.39;56.58
69938;DHT22;57248;47.320;15.998;2023-08-08T07:28:54;22.34;57.28
69938;DHT22;57248;47.320;15.998;2023-08-08T07:31:27;22.58;53.79
69938;DHT22;57248;47.320;15.998;2023-08-08T07:33:59;22.68;54.79
69938;DHT22;57248;47.320;15.998;2023-08-08T07:36:31;21.74;55.19
69938;DHT22;57248;47.320;15.998;2023-08-08T07:39:03;20.34;56.75
69938;DHT22;57248;47.320;15.998;2023-08-08T07:41:35;21.77;57.00
69938;DHT22;57248;47.320;15.998;2023-08-08T07:44:07;20.88;57.28
69938;DHT22;57248;47.320;15.998;2023-08-08T07:46:39;21.59;56.15
69938;DHT22;57248;47.320;15.998;2023-08-08T07:49:13;21.38;54.33
69938;DHT22;57248;47.320;15.998;2023-08-08T07:51:44;21.52;56.80
69938;DHT22;57248;47.320;15.998;2023-08-08T07:54:16;21.35;54.78
69938;DHT22;57248;47.320;15.998;2023-08-08T07:56:49;21.35;54.17
69938;DHT22;57248;47.320;15.998;2023-08-08T07:59:21;20.48;55.00
69938;DHT22;57248;47.320;15.998;2023-08-08T08:01:53;21.28;54.64
69938;DHT22;57248;47.320;15.998;2023-08-08T08:04:25;22.37;54.60
69938;DHT22;57248;47.320;15.998;2023-08-08T08:06:57;23.64;49.91
69938;DHT22;57248;47.320;15.998;2023-08-08T08:09:29;23.67;50.32
69938;DHT22;57248;47.320;15.998;2023-08-08T08:12:01;23.41;50.65
69938;DHT22;57248;47.320;15.998;2023-08-08T08:14:29;23.51;50.25
69938;DHT22;57248;47.320;15.998;2023-08-08T08:17:00;22.20;51.95
69938;DHT22;57248;47.320;15.998;2023-08-08T08:19:32;23.20;51.92
69938;DHT22;57248;47.320;15.998;2023-08-08T08:22:11;25.70;45.96
69938;DHT22;57248;47.320;15.998;2023-08-08T08:24:43;26.55;43.33
69938;DHT22;57248;47.320;15.998;2023-08-08T08:27:09;24.73;45.16
69938;DHT22;57248;47.320;15.998;2023-08-08T08:29:40;26.55;43.02
69938;DHT22;57248;47.320;15.998;2023-08-08T08:32:13;26.00;40.56
69938;DHT22;57248;47.320;15.998;2023-08-08T08:34:45;27.30;40.51
69938;DHT22;57248;47.320;15.998;2023-08-08T08:37:17;27.43;38.99
69938;DHT22;57248;47.320;15.998;2023-08-08T08:39:49;26.20;40.02
69938;DHT22;57248;47.320;15.998;2023-08-08T08:42:15;26.45;38.86
69938;DHT22;57248;47.320;15.998;2023-08-08T08:44:49;29.44;38.34
69938;DHT22;57248;47.320;15.998;2023-08-08T08:47:22;27.67;37.99
69938;DHT22;57248;47.320;15.998;2023-08-08T08:49:57;28.89;38.32
69938;DHT22;57248;47.320;15.998;2023-08-08T08:52:33;27.58;39.06
69938;DHT22;57248;47.320;15.998;2023-08-08T08:55:06;27.80;38.88
69938;DHT22;57248;47.320;15.998;2023-08-08T08:57:38;26.56;39.06
69938;DHT22;57248;47.320;15.998;2023-08-08T09:00:11;27.65;40.13
69938;DHT22;57248;47.320;15.998;2023-08-08T09:02:44;26.34;39.84
69938;DHT22;57248;47.320;15.998;2023-08-08T09:05:10;27.12;37.51
69938;DHT22;57248;47.320;15.998;2023-08-08T09:07:44;27.43;38.82
69938;DHT22;57248;47.320;15.998;2023-08-08T09:10:17;28.32;37.50
69938;DHT22;57248;47.320;15.998;2023-08-08T09:12:49;29.47;36.66
69938;DHT22;57248;47.320;15.998;2023-08-08T09:15:21;30.10;36.70
69938;DHT22;57248;47.320;15.998;2023-08-08T09:17:53;28.39;38.58
69938;DHT22;57248;47.320;15.998;2023-08-08T09:20:19;29.89;35.47
69938;DHT22;57248;47.320;15.998;2023-08-08T09:22:51;30.23;36.38
69938;DHT22;57248;47.320;15.998;2023-08-08T09:25:18;30.48;37.80
69938;DHT22;57248;47.320;15.998;2023-08-08T09:27:51;29.72;36.21
69938;DHT22;57248;47.320;15.998;2023-08-08T09:30:25;30.03;36.20
69938;DHT22;57248;47.320;15.998;2023-08-08T09:33:01;29.62;36.15
69938;DHT22;57248;47.320;15.998;2023-08-08T09:35:33;29.52;37.32
69938;DHT22;57248;47.320;15.998;2023-08-08T09:38:05;31.40;34.46
69938;DHT22;57248;47.320;15.998;2023-08-08T09:40:37;29.51;36.44
69938;DHT22;57248;47.320;15.998;2023-08-08T09:43:11;31.12;33.74
69938;DHT22;57248;47.320;15.998;2023-08-08T09:45:43;29.24;35.23
69938;DHT22;57248;47.320;15.998;2023-08-08T09:48:17;32.13;34.23
69938;DHT22;57248;47.320;15.998;2023-08-08T09:50:50;30.10;36.02
69938;DHT22;57248;47.320;15.998;2023-08-08T09:53:24;30.78;34.95
69938;DHT22;57248;47.320;15.998;2023-08-08T09:55:57;30.00;34.42
69938;DHT22;57248;47.320;15.998;2023-08-08T09:58:29;30.30;33.24
69938;DHT22;57248;47.320;15.998;2023-08-08T10:01:01;29.04;34.93
69938;DHT22;57248;47.320;15.998;2023-08-08T10:03:36;29.47;33.82
69938;DHT22;57248;47.320;15.998;2023-08-08T10:06:09;32.45;32.57
69938;DHT22;57248;47.320;15.998;2023-08-08T10:08:41;28.46;36.80
69938;DHT22;57248;47.320;15.998;2023-08-08T10:11:14;33.84;32.26
69938;DHT22;57248;47.320;15.998;2023-08-08T10:13:49;28.87;35.55
69938;DHT22;57248;47.320;15.998;2023-08-08T10:16:22;29.01;36.34
69938;DHT22;57248;47.320;15.998;2023-08-08T10:19:03;27.50;38.92
69938;DHT22;57248;47.320;15.998;2023-08-08T10:21:43;26.41;39.79
69938;DHT22;57248;47.320;15.998;2023-08-08T10:24:20;25.11;40.66
69938;DHT22;57248;47.320;15.998;2023-08-08T10:27:00;25.38;41.32
69938;DHT22;57248;47.320;15.998;2023-08-08T10:29:38;28.13;38.22
69938;DHT22;57248;47.320;15.998;2023-08-08T10:32:23;34.04;33.19
69938;DHT22;57248;47.320;15.998;2023-08-08T10:34:55;29.47;35.44
69938;DHT22;57248;47.320;15.998;2023-08-08T10:37:31;26.49;38.97
69938;DHT22;57248;47.320;15.998;2023-08-08T10:40:03;25.18;40.32
69938;DHT22;57248;47.320;15.998;2023-08-08T10:42:42;26.07;40.51
69938;DHT22;57248;47.320;15.998;2023-08-08T10:45:16;27.90;36.15
69938;DHT22;57248;47.320;15.998;2023-08-08T10:47:50;29.32;34.85
69938;DHT22;57248;47.320;15.998;2023-08-08T10:50:22;32.00;34.29
69938;DHT22;57248;47.320;15.998;2023-08-08T10:52:55;30.91;33.77
69938;DHT22;57248;47.320;15.998;2023-08-08T10:55:32;29.00;36.50
69938;DHT22;57248;47.320;15.998;2023-08-08T10:58:12;29.31;34.15
69938;DHT22;57248;47.320;15.998;2023-08-08T11:00:47;28.74;34.79
69938;DHT22;57248;47.320;15.998;2023-08-08T11:03:20;30.12;33.92
69938;DHT22;57248;47.320;15.998;2023-08-08T11:05:54;27.06;37.27
69938;DHT22;57248;47.320;15.998;2023-08-08T11:08:21;28.21;37.23
69938;DHT22;57248;47.320;15.998;2023-08-08T11:10:54;26.62;38.84
69938;DHT22;57248;47.320;15.998;2023-08-08T11:13:26;26.83;36.29
69938;DHT22;57248;47.320;15.998;2023-08-08T11:16:00;32.92;30.96
69938;DHT22;57248;47.320;15.998;2023-08-08T11:18:33;35.11;28.48
69938;DHT22;57248;47.320;15.998;2023-08-08T11:21:12;27.76;36.79
69938;DHT22;57248;47.320;15.998;2023-08-08T11:23:52;27.98;37.06
69938;DHT22;57248;47.320;15.998;2023-08-08T11:26:25;27.39;38.91
69938;DHT22;57248;47.320;15.998;2023-08-08T11:28:59;25.73;39.97
69938;DHT22;57248;47.320;15.998;2023-08-08T11:31:33;28.13;35.07
69938;DHT22;57248;47.320;15.998;2023-08-08T11:33:59;26.78;38.37
69938;DHT22;57248;47.320;15.998;2023-08-08T11:36:33;26.41;37.35
69938;DHT22;57248;47.320;15.998;2023-08-08T11:39:03;25.96;39.12
69938;DHT22;57248;47.320;15.998;2023-08-08T11:41:42;27.26;35.96
69938;DHT22;57248;47.320;15.998;2023-08-08T11:44:16;30.39;34.11
69938;DHT22;57248;47.320;15.998;2023-08-08T11:46:47;31.63;31.30
69938;DHT22;57248;47.320;15.998;2023-08-08T11:49:19;31.33;31.21
69938;DHT22;57248;47.320;15.998;2023-08-08T11:51:54;33.19;31.37
69938;DHT22;57248;47.320;15.998;2023-08-08T11:54:30;32.32;31.37
69938;DHT22;57248;47.320;15.998;2023-08-08T11:57:03;33.27;29.38
69938;DHT22;57248;47.320;15.998;2023-08-08T11:59:35;31.42;29.78
69938;DHT22;57248;47.320;15.998;2023-08-08T12:02:09;31.66;31.31
69938;DHT22;57248;47.320;15.998;2023-08-08T12:04:45;30.78;30.74
69938;DHT22;57248;47.320;15.998;2023-08-08T12:07:17;29.98;31.38
69938;DHT22;57248;47.320;15.998;2023-08-08T12:09:52;30.39;31.46
69938;DHT22;57248;47.320;15.998;2023-08-08T12:12:27;33.51;31.20
69938;DHT22;57248;47.320;15.998;2023-08-08T12:14:58;33.02;29.81
69938;DHT22;57248;47.320;15.998;2023-08-08T12:17:30;28.41;34.54
69938;DHT22;57248;47.320;15.998;2023-08-08T12:20:07;25.96;39.26
69938;DHT22;57248;47.320;15.998;2023-08-08T12:22:40;25.59;40.56
69938;DHT22;57248;47.320;15.998;2023-08-08T12:25:11;28.12;37.33
69938;DHT22;57248;47.320;15.998;2023-08-08T12:27:44;27.58;36.97
69938;DHT22;57248;47.320;15.998;2023-08-08T12:30:16;27.92;37.68
69938;DHT22;57248;47.320;15.998;2023-08-08T12:32:48;26.37;38.85
69938;DHT22;57248;47.320;15.998;2023-08-08T12:35:22;25.59;39.19
69938;DHT22;57248;47.320;15.998;2023-08-08T12:37:53;26.25;39.73
69938;DHT22;57248;47.320;15.998;2023-08-08T12:40:25;28.84;36.73
69938;DHT22;57248;47.320;15.998;2023-08-08T12:42:57;30.88;34.28
69938;DHT22;57248;47.320;15.998;2023-08-08T12:45:29;33.49;33.39
69938;DHT22;57248;47.320;15.998;2023-08-08T12:47:55;28.90;36.15
69938;DHT22;57248;47.320;15.998;2023-08-08T12:50:27;26.98;38.88
69938;DHT22;57248;47.320;15.998;2023-08-08T12:52:53;25.76;40.17
69938;DHT22;57248;47.320;15.998;2023-08-08T12:55:25;30.45;34.49
69938;DHT22;57248;47.320;15.998;2023-08-08T12:57:57;29.07;35.91
69938;DHT22;57248;47.320;15.998;2023-08-08T13:00:23;27.54;38.87
69938;DHT22;57248;47.320;15.998;2023-08-08T13:02:58;24.94;42.34
69938;DHT22;57248;47.320;15.998;2023-08-08T13:05:29;27.26;39.12
69938;DHT22;57248;47.320;15.998;2023-08-08T13:08:01;26.38;39.60
69938;DHT22;57248;47.320;15.998;2023-08-08T13:10:36;25.83;40.70
69938;DHT22;57248;47.320;15.998;2023-08-08T13:13:07;25.65;39.41
69938;DHT22;57248;47.320;15.998;2023-08-08T13:15:39;29.10;34.83
69938;DHT22;57248;47.320;15.998;2023-08-08T13:18:11;33.35;31.66
69938;DHT22;57248;47.320;15.998;2023-08-08T13:20:50;30.48;31.70
69938;DHT22;57248;47.320;15.998;2023-08-08T13:23:29;28.63;35.09
69938;DHT22;57248;47.320;15.998;2023-08-08T13:26:02;27.23;37.64
69938;DHT22;57248;47.320;15.998;2023-08-08T13:28:34;26.98;37.34
69938;DHT22;57248;47.320;15.998;2023-08-08T13:31:07;27.71;37.44
69938;DHT22;57248;47.320;15.998;2023-08-08T13:33:39;26.65;37.86
69938;DHT22;57248;47.320;15.998;2023-08-08T13:36:11;28.11;36.28
69938;DHT22;57248;47.320;15.998;2023-08-08T13:38:43;29.12;35.40
69938;DHT22;57248;47.320;15.998;2023-08-08T13:41:16;30.88;33.57
69938;DHT22;57248;47.320;15.998;2023-08-08T13:43:49;32.27;31.98
69938;DHT22;57248;47.320;15.998;2023-08-08T13:46:14;35.48;29.27
69938;DHT22;57248;47.320;15.998;2023-08-08T13:48:46;29.22;33.25
69938;DHT22;57248;47.320;15.998;2023-08-08T13:51:18;31.23;33.33
69938;DHT22;57248;47.320;15.998;2023-08-08T13:53:44;28.55;34.11
69938;DHT22;57248;47.320;15.998;2023-08-08T13:56:17;27.24;36.82
69938;DHT22;57248;47.320;15.998;2023-08-08T13:58:48;29.79;35.07
69938;DHT22;57248;47.320;15.998;2023-08-08T14:01:20;27.81;37.55
69938;DHT22;57248;47.320;15.998;2023-08-08T14:03:53;27.60;38.16
69938;DHT22;57248;47.320;15.998;2023-08-08T14:06:25;29.37;35.81
69938;DHT22;57248;47.320;15.998;2023-08-08T14:08:58;31.80;32.64
69938;DHT22;57248;47.320;15.998;2023-08-08T14:11:24;30.31;34.74
69938;DHT22;57248;47.320;15.998;2023-08-08T14:13:55;26.67;40.95
69938;DHT22;57248;47.320;15.998;2023-08-08T14:16:27;24.52;42.32
69938;DHT22;57248;47.320;15.998;2023-08-08T14:18:59;28.29;37.09
69938;DHT22;57248;47.320;15.998;2023-08-08T14:21:38;29.61;34.65
69938;DHT22;57248;47.320;15.998;2023-08-08T14:24:10;31.74;32.32
69938;DHT22;57248;47.320;15.998;2023-08-08T14:26:42;30.20;34.45
69938;DHT22;57248;47.320;15.998;2023-08-08T14:29:08;32.34;32.98
69938;DHT22;57248;47.320;15.998;2023-08-08T14:31:40;31.90;33.21
69938;DHT22;57248;47.320;15.998;2023-08-08T14:34:14;33.54;31.38
69938;DHT22;57248;47.320;15.998;2023-08-08T14:36:46;33.23;30.15
69938;DHT22;57248;47.320;15.998;2023-08-08T14:39:18;36.94;28.72
69938;DHT22;57248;47.320;15.998;2023-08-08T14:41:50;32.27;31.38
69938;DHT22;57248;47.320;15.998;2023-08-08T14:44:24;30.82;34.72
69938;DHT22;57248;47.320;15.998;2023-08-08T14:46:58;32.51;32.86
69938;DHT22;57248;47.320;15.998;2023-08-08T14:49:29;31.69;33.41
69938;DHT22;57248;47.320;15.998;2023-08-08T14:52:03;33.29;31.83
69938;DHT22;57248;47.320;15.998;2023-08-08T14:54:35;30.96;33.89
69938;DHT22;57248;47.320;15.998;2023-08-08T14:57:08;31.93;33.15
69938;DHT22;57248;47.320;15.998;2023-08-08T14:59:39;32.71;33.19
69938;DHT22;57248;47.320;15.998;2023-08-08T15:02:12;29.54;36.64
69938;DHT22;57248;47.320;15.998;2023-08-08T15:04:44;28.29;40.02
69938;DHT22;57248;47.320;15.998;2023-08-08T15:07:17;30.29;36.11
69938;DHT22;57248;47.320;15.998;2023-08-08T15:09:49;28.69;38.25
69938;DHT22;57248;47.320;15.998;2023-08-08T15:12:22;28.23;39.40
69938;DHT22;57248;47.320;15.998;2023-08-08T15:14:54;27.44;40.82
69938;DHT22;57248;47.320;15.998;2023-08-08T15:17:27;29.58;37.58
69938;DHT22;57248;47.320;15.998;2023-08-08T15:20:00;31.43;36.19
69938;DHT22;57248;47.320;15.998;2023-08-08T15:22:45;31.66;35.01
69938;DHT22;57248;47.320;15.998;2023-08-08T15:25:18;31.07;34.68
69938;DHT22;57248;47.320;15.998;2023-08-08T15:27:50;30.58;36.04
69938;DHT22;57248;47.320;15.998;2023-08-08T15:30:21;31.07;34.88
69938;DHT22;57248;47.320;15.998;2023-08-08T15:32:49;28.52;37.90
69938;DHT22;57248;47.320;15.998;2023-08-08T15:35:20;27.71;39.66
69938;DHT22;57248;47.320;15.998;2023-08-08T15:37:52;27.50;40.97
69938;DHT22;57248;47.320;15.998;2023-08-08T15:40:25;25.70;42.79
69938;DHT22;57248;47.320;15.998;2023-08-08T15:42:58;25.97;42.50
69938;DHT22;57248;47.320;15.998;2023-08-08T15:45:30;25.63;43.72
69938;DHT22;57248;47.320;15.998;2023-08-08T15:48:03;25.77;42.55
69938;DHT22;57248;47.320;15.998;2023-08-08T15:50:35;25.67;45.22